sensor_id;sensor_type;location;lat;lon;timestamp;P1;durP1;ratioP1;P2;durP2;ratioP2
74469;SDS011;62918;55.706;37.816;2023-02-26T00:00:13;18.02;;;13.05;;
74469;SDS011;62918;55.706;37.816;2023-02-26T00:00:44;16.55;;;11.13;;
74469;SDS011;62918;55.706;37.816;2023-02-26T00:01:16;17.48;;;11.10;;
74469;SDS011;62918;55.706;37.816;2023-02-26T00:01:48;17.70;;;11.60;;
74469;SDS011;62918;55.706;37.816;2023-02-26T00:02:19;18.23;;;11.68;;
74469;SDS011;62918;55.706;37.816;2023-02-26T00:02:50;16.00;;;11.07;;
74469;SDS011;62918;55.706;37.816;2023-02-26T00:03:20;17.27;;;10.82;;
74469;SDS011;62918;55.706;37.816;2023-02-26T00:03:51;17.80;;;11.80;;
74469;SDS011;62918;55.706;37.816;2023-02-26T00:04:24;17.10;;;11.65;;
74469;SDS011;62918;55.706;37.816;2023-02-26T00:04:54;18.45;;;12.05;;
74469;SDS011;62918;55.706;37.816;2023-02-26T00:05:25;19.48;;;12.27;;
74469;SDS011;62918;55.706;37.816;2023-02-26T00:05:59;17.88;;;11.13;;
74469;SDS011;62918;55.706;37.816;2023-02-26T00:06:31;15.90;;;10.52;;
74469;SDS011;62918;55.706;37.816;2023-02-26T00:07:03;18.45;;;12.00;;
74469;SDS011;62918;55.706;37.816;2023-02-26T00:07:35;16.88;;;11.23;;
74469;SDS011;62918;55.706;37.816;2023-02-26T00:08:05;17.70;;;11.88;;
74469;SDS011;62918;55.706;37.816;2023-02-26T00:08:36;17.20;;;12.15;;
74469;SDS011;62918;55.706;37.816;2023-02-26T00:09:06;18.45;;;12.43;;
74469;SDS011;62918;55.706;37.816;2023-02-26T00:09:37;18.50;;;12.85;;
74469;SDS011;62918;55.706;37.816;2023-02-26T00:10:08;19.00;;;12.25;;
74469;SDS011;62918;55.706;37.816;2023-02-26T00:10:42;17.27;;;10.82;;
74469;SDS011;62918;55.706;37.816;2023-02-26T00:11:13;17.40;;;11.95;;
74469;SDS011;62918;55.706;37.816;2023-02-26T00:11:44;17.65;;;11.77;;
74469;SDS011;62918;55.706;37.816;2023-02-26T00:12:15;16.85;;;10.68;;
74469;SDS011;62918;55.706;37.816;2023-02-26T00:12:46;17.13;;;11.52;;
74469;SDS011;62918;55.706;37.816;2023-02-26T00:13:17;18.23;;;11.48;;
74469;SDS011;62918;55.706;37.816;2023-02-26T00:13:48;16.50;;;11.27;;
74469;SDS011;62918;55.706;37.816;2023-02-26T00:14:19;17.02;;;11.52;;
74469;SDS011;62918;55.706;37.816;2023-02-26T00:14:50;16.80;;;11.65;;
74469;SDS011;62918;55.706;37.816;2023-02-26T00:15:21;16.42;;;11.70;;
74469;SDS011;62918;55.706;37.816;2023-02-26T00:15:55;16.15;;;10.43;;
74469;SDS011;62918;55.706;37.816;2023-02-26T00:16:32;16.52;;;12.00;;
74469;SDS011;62918;55.706;37.816;2023-02-26T00:18:06;18.92;;;11.50;;
74469;SDS011;62918;55.706;37.816;2023-02-26T00:18:41;17.83;;;11.30;;
74469;SDS011;62918;55.706;37.816;2023-02-26T00:19:12;17.50;;;11.80;;
74469;SDS011;62918;55.706;37.816;2023-02-26T00:19:43;17.17;;;11.90;;
74469;SDS011;62918;55.706;37.816;2023-02-26T00:20:14;20.83;;;12.32;;
74469;SDS011;62918;55.706;37.816;2023-02-26T00:20:48;17.85;;;11.52;;
74469;SDS011;62918;55.706;37.816;2023-02-26T00:21:19;18.77;;;12.00;;
74469;SDS011;62918;55.706;37.816;2023-02-26T00:22:21;19.40;;;11.60;;
74469;SDS011;62918;55.706;37.816;2023-02-26T00:22:52;16.90;;;11.07;;
74469;SDS011;62918;55.706;37.816;2023-02-26T00:23:23;17.60;;;11.75;;
74469;SDS011;62918;55.706;37.816;2023-02-26T00:23:54;17.70;;;11.60;;
74469;SDS011;62918;55.706;37.816;2023-02-26T00:24:25;18.52;;;12.88;;
74469;SDS011;62918;55.706;37.816;2023-02-26T00:24:55;17.15;;;11.13;;
74469;SDS011;62918;55.706;37.816;2023-02-26T00:25:26;18.70;;;11.77;;
74469;SDS011;62918;55.706;37.816;2023-02-26T00:25:57;18.70;;;12.52;;
74469;SDS011;62918;55.706;37.816;2023-02-26T00:26:28;17.63;;;12.00;;
74469;SDS011;62918;55.706;37.816;2023-02-26T00:27:00;18.15;;;12.07;;
74469;SDS011;62918;55.706;37.816;2023-02-26T00:27:31;16.65;;;11.13;;
74469;SDS011;62918;55.706;37.816;2023-02-26T00:28:01;17.98;;;11.57;;
74469;SDS011;62918;55.706;37.816;2023-02-26T00:28:32;16.63;;;10.88;;
74469;SDS011;62918;55.706;37.816;2023-02-26T00:29:03;18.08;;;12.23;;
74469;SDS011;62918;55.706;37.816;2023-02-26T00:29:34;17.60;;;11.65;;
74469;SDS011;62918;55.706;37.816;2023-02-26T00:30:05;19.67;;;11.98;;
74469;SDS011;62918;55.706;37.816;2023-02-26T00:30:37;17.25;;;12.48;;
74469;SDS011;62918;55.706;37.816;2023-02-26T00:31:08;18.02;;;12.00;;
74469;SDS011;62918;55.706;37.816;2023-02-26T00:31:39;19.38;;;12.38;;
74469;SDS011;62918;55.706;37.816;2023-02-26T00:32:10;18.75;;;12.55;;
74469;SDS011;62918;55.706;37.816;2023-02-26T00:32:41;20.70;;;12.40;;
74469;SDS011;62918;55.706;37.816;2023-02-26T00:33:12;16.27;;;10.73;;
74469;SDS011;62918;55.706;37.816;2023-02-26T00:33:43;19.85;;;12.75;;
74469;SDS011;62918;55.706;37.816;2023-02-26T00:34:14;17.30;;;11.38;;
74469;SDS011;62918;55.706;37.816;2023-02-26T00:34:45;15.05;;;10.23;;
74469;SDS011;62918;55.706;37.816;2023-02-26T00:35:17;16.83;;;12.02;;
74469;SDS011;62918;55.706;37.816;2023-02-26T00:35:48;19.30;;;11.20;;
74469;SDS011;62918;55.706;37.816;2023-02-26T00:38:18;17.60;;;10.65;;
74469;SDS011;62918;55.706;37.816;2023-02-26T00:40:58;15.90;;;9.98;;
74469;SDS011;62918;55.706;37.816;2023-02-26T00:41:29;15.70;;;10.70;;
74469;SDS011;62918;55.706;37.816;2023-02-26T00:41:59;14.73;;;10.68;;
74469;SDS011;62918;55.706;37.816;2023-02-26T00:42:31;18.20;;;10.43;;
74469;SDS011;62918;55.706;37.816;2023-02-26T00:43:03;16.95;;;10.93;;
74469;SDS011;62918;55.706;37.816;2023-02-26T00:43:34;16.80;;;11.50;;
74469;SDS011;62918;55.706;37.816;2023-02-26T00:44:05;18.05;;;10.93;;
74469;SDS011;62918;55.706;37.816;2023-02-26T00:44:36;17.90;;;11.13;;
74469;SDS011;62918;55.706;37.816;2023-02-26T00:45:07;16.70;;;10.77;;
74469;SDS011;62918;55.706;37.816;2023-02-26T00:45:40;18.13;;;11.43;;
74469;SDS011;62918;55.706;37.816;2023-02-26T00:46:26;18.70;;;11.93;;
74469;SDS011;62918;55.706;37.816;2023-02-26T00:48:39;18.75;;;10.75;;
74469;SDS011;62918;55.706;37.816;2023-02-26T00:50:34;15.60;;;10.15;;
74469;SDS011;62918;55.706;37.816;2023-02-26T00:51:15;18.08;;;10.68;;
74469;SDS011;62918;55.706;37.816;2023-02-26T00:52:28;14.52;;;8.85;;
74469;SDS011;62918;55.706;37.816;2023-02-26T00:53:21;14.60;;;8.85;;
74469;SDS011;62918;55.706;37.816;2023-02-26T00:54:19;13.85;;;8.35;;
74469;SDS011;62918;55.706;37.816;2023-02-26T00:54:52;15.35;;;9.35;;
74469;SDS011;62918;55.706;37.816;2023-02-26T00:55:23;16.15;;;10.55;;
74469;SDS011;62918;55.706;37.816;2023-02-26T00:55:53;13.68;;;9.50;;
74469;SDS011;62918;55.706;37.816;2023-02-26T00:56:24;13.60;;;9.95;;
74469;SDS011;62918;55.706;37.816;2023-02-26T00:56:55;13.52;;;9.88;;
74469;SDS011;62918;55.706;37.816;2023-02-26T00:57:27;14.63;;;9.80;;
74469;SDS011;62918;55.706;37.816;2023-02-26T00:57:57;12.80;;;8.88;;
74469;SDS011;62918;55.706;37.816;2023-02-26T00:58:28;15.27;;;9.80;;
74469;SDS011;62918;55.706;37.816;2023-02-26T00:58:58;14.23;;;10.32;;
74469;SDS011;62918;55.706;37.816;2023-02-26T00:59:29;15.27;;;10.07;;
74469;SDS011;62918;55.706;37.816;2023-02-26T00:59:59;14.50;;;10.05;;
74469;SDS011;62918;55.706;37.816;2023-02-26T01:00:30;13.73;;;9.75;;
74469;SDS011;62918;55.706;37.816;2023-02-26T01:01:00;14.98;;;10.05;;
74469;SDS011;62918;55.706;37.816;2023-02-26T01:01:31;15.10;;;9.32;;
74469;SDS011;62918;55.706;37.816;2023-02-26T01:02:01;12.80;;;9.13;;
74469;SDS011;62918;55.706;37.816;2023-02-26T01:02:36;13.38;;;9.60;;
74469;SDS011;62918;55.706;37.816;2023-02-26T01:03:08;14.73;;;8.95;;
74469;SDS011;62918;55.706;37.816;2023-02-26T01:03:40;12.85;;;8.27;;
74469;SDS011;62918;55.706;37.816;2023-02-26T01:04:11;13.57;;;9.85;;
74469;SDS011;62918;55.706;37.816;2023-02-26T01:04:42;17.40;;;10.70;;
74469;SDS011;62918;55.706;37.816;2023-02-26T01:05:14;12.38;;;8.95;;
74469;SDS011;62918;55.706;37.816;2023-02-26T01:05:46;11.60;;;8.10;;
74469;SDS011;62918;55.706;37.816;2023-02-26T01:06:18;14.60;;;10.35;;
74469;SDS011;62918;55.706;37.816;2023-02-26T01:06:52;12.35;;;7.72;;
74469;SDS011;62918;55.706;37.816;2023-02-26T01:07:24;12.90;;;8.45;;
74469;SDS011;62918;55.706;37.816;2023-02-26T01:09:30;12.43;;;8.20;;
74469;SDS011;62918;55.706;37.816;2023-02-26T01:10:05;11.95;;;7.30;;
74469;SDS011;62918;55.706;37.816;2023-02-26T01:10:36;13.23;;;8.75;;
74469;SDS011;62918;55.706;37.816;2023-02-26T01:11:07;12.65;;;7.97;;
74469;SDS011;62918;55.706;37.816;2023-02-26T01:11:38;13.45;;;9.00;;
74469;SDS011;62918;55.706;37.816;2023-02-26T01:12:09;11.95;;;8.50;;
74469;SDS011;62918;55.706;37.816;2023-02-26T01:12:42;12.85;;;8.30;;
74469;SDS011;62918;55.706;37.816;2023-02-26T01:13:13;13.02;;;9.02;;
74469;SDS011;62918;55.706;37.816;2023-02-26T01:13:44;11.55;;;8.68;;
74469;SDS011;62918;55.706;37.816;2023-02-26T01:14:15;11.35;;;6.45;;
74469;SDS011;62918;55.706;37.816;2023-02-26T01:14:45;15.27;;;9.40;;
74469;SDS011;62918;55.706;37.816;2023-02-26T01:15:17;11.32;;;8.05;;
74469;SDS011;62918;55.706;37.816;2023-02-26T01:15:49;11.50;;;7.97;;
74469;SDS011;62918;55.706;37.816;2023-02-26T01:16:29;12.35;;;8.15;;
74469;SDS011;62918;55.706;37.816;2023-02-26T01:17:46;9.77;;;7.10;;
74469;SDS011;62918;55.706;37.816;2023-02-26T01:18:32;10.30;;;8.20;;
74469;SDS011;62918;55.706;37.816;2023-02-26T01:19:08;10.63;;;7.20;;
74469;SDS011;62918;55.706;37.816;2023-02-26T01:19:53;10.93;;;7.18;;
74469;SDS011;62918;55.706;37.816;2023-02-26T01:20:30;11.02;;;8.23;;
74469;SDS011;62918;55.706;37.816;2023-02-26T01:21:16;10.98;;;8.07;;
74469;SDS011;62918;55.706;37.816;2023-02-26T01:21:54;11.25;;;7.28;;
74469;SDS011;62918;55.706;37.816;2023-02-26T01:22:52;10.80;;;7.13;;
74469;SDS011;62918;55.706;37.816;2023-02-26T01:23:26;9.70;;;6.95;;
74469;SDS011;62918;55.706;37.816;2023-02-26T01:24:02;10.05;;;7.28;;
74469;SDS011;62918;55.706;37.816;2023-02-26T01:24:38;9.02;;;6.20;;
74469;SDS011;62918;55.706;37.816;2023-02-26T01:25:11;11.35;;;7.53;;
74469;SDS011;62918;55.706;37.816;2023-02-26T01:26:27;9.05;;;6.50;;
74469;SDS011;62918;55.706;37.816;2023-02-26T01:26:58;9.93;;;6.38;;
74469;SDS011;62918;55.706;37.816;2023-02-26T01:27:29;9.07;;;6.85;;
74469;SDS011;62918;55.706;37.816;2023-02-26T01:27:59;9.82;;;6.95;;
74469;SDS011;62918;55.706;37.816;2023-02-26T01:28:30;10.23;;;7.13;;
74469;SDS011;62918;55.706;37.816;2023-02-26T01:29:01;10.48;;;7.82;;
74469;SDS011;62918;55.706;37.816;2023-02-26T01:29:32;9.60;;;7.35;;
74469;SDS011;62918;55.706;37.816;2023-02-26T01:30:04;9.63;;;7.07;;
74469;SDS011;62918;55.706;37.816;2023-02-26T01:30:36;9.43;;;7.28;;
74469;SDS011;62918;55.706;37.816;2023-02-26T01:31:10;8.93;;;6.40;;
74469;SDS011;62918;55.706;37.816;2023-02-26T01:31:56;9.02;;;6.78;;
74469;SDS011;62918;55.706;37.816;2023-02-26T01:32:44;9.73;;;6.57;;
74469;SDS011;62918;55.706;37.816;2023-02-26T01:35:22;9.00;;;6.57;;
74469;SDS011;62918;55.706;37.816;2023-02-26T01:35:42;8.98;;;6.18;;
74469;SDS011;62918;55.706;37.816;2023-02-26T01:36:20;8.73;;;5.88;;
74469;SDS011;62918;55.706;37.816;2023-02-26T01:36:59;9.80;;;6.65;;
74469;SDS011;62918;55.706;37.816;2023-02-26T01:38:31;9.30;;;6.45;;
74469;SDS011;62918;55.706;37.816;2023-02-26T01:39:18;8.50;;;5.70;;
74469;SDS011;62918;55.706;37.816;2023-02-26T01:41:10;8.98;;;5.68;;
74469;SDS011;62918;55.706;37.816;2023-02-26T01:41:50;7.60;;;5.45;;
74469;SDS011;62918;55.706;37.816;2023-02-26T01:42:24;7.70;;;5.38;;
74469;SDS011;62918;55.706;37.816;2023-02-26T01:43:02;8.60;;;5.75;;
74469;SDS011;62918;55.706;37.816;2023-02-26T01:43:59;8.00;;;5.75;;
74469;SDS011;62918;55.706;37.816;2023-02-26T01:44:58;7.97;;;4.95;;
74469;SDS011;62918;55.706;37.816;2023-02-26T01:45:34;9.98;;;6.63;;
74469;SDS011;62918;55.706;37.816;2023-02-26T01:46:22;9.55;;;5.60;;
74469;SDS011;62918;55.706;37.816;2023-02-26T01:47:15;10.07;;;6.07;;
74469;SDS011;62918;55.706;37.816;2023-02-26T01:48:00;8.38;;;5.97;;
74469;SDS011;62918;55.706;37.816;2023-02-26T01:48:37;7.25;;;4.40;;
74469;SDS011;62918;55.706;37.816;2023-02-26T01:49:17;8.45;;;5.63;;
74469;SDS011;62918;55.706;37.816;2023-02-26T01:49:49;10.18;;;6.70;;
74469;SDS011;62918;55.706;37.816;2023-02-26T01:50:20;8.65;;;6.40;;
74469;SDS011;62918;55.706;37.816;2023-02-26T01:50:59;7.80;;;5.65;;
74469;SDS011;62918;55.706;37.816;2023-02-26T01:51:46;9.45;;;6.32;;
74469;SDS011;62918;55.706;37.816;2023-02-26T01:53:20;7.05;;;5.00;;
74469;SDS011;62918;55.706;37.816;2023-02-26T01:53:53;7.78;;;5.95;;
74469;SDS011;62918;55.706;37.816;2023-02-26T01:54:26;8.85;;;5.70;;
74469;SDS011;62918;55.706;37.816;2023-02-26T01:54:57;6.97;;;5.22;;
74469;SDS011;62918;55.706;37.816;2023-02-26T01:55:28;9.05;;;5.53;;
74469;SDS011;62918;55.706;37.816;2023-02-26T01:56:00;8.38;;;6.05;;
74469;SDS011;62918;55.706;37.816;2023-02-26T01:56:34;7.55;;;5.28;;
74469;SDS011;62918;55.706;37.816;2023-02-26T01:57:10;7.60;;;5.28;;
74469;SDS011;62918;55.706;37.816;2023-02-26T01:58:46;6.53;;;5.05;;
74469;SDS011;62918;55.706;37.816;2023-02-26T01:59:19;7.93;;;5.43;;
74469;SDS011;62918;55.706;37.816;2023-02-26T01:59:53;7.80;;;5.80;;
74469;SDS011;62918;55.706;37.816;2023-02-26T02:00:24;7.78;;;5.07;;
74469;SDS011;62918;55.706;37.816;2023-02-26T02:00:54;6.95;;;4.97;;
74469;SDS011;62918;55.706;37.816;2023-02-26T02:01:25;8.85;;;5.68;;
74469;SDS011;62918;55.706;37.816;2023-02-26T02:01:56;7.85;;;6.03;;
74469;SDS011;62918;55.706;37.816;2023-02-26T02:02:28;8.38;;;5.28;;
74469;SDS011;62918;55.706;37.816;2023-02-26T02:02:59;7.63;;;5.50;;
74469;SDS011;62918;55.706;37.816;2023-02-26T02:03:31;8.85;;;6.00;;
74469;SDS011;62918;55.706;37.816;2023-02-26T02:04:05;7.22;;;5.00;;
74469;SDS011;62918;55.706;37.816;2023-02-26T02:04:40;8.25;;;6.00;;
74469;SDS011;62918;55.706;37.816;2023-02-26T02:06:15;7.50;;;5.18;;
74469;SDS011;62918;55.706;37.816;2023-02-26T02:06:49;6.75;;;5.10;;
74469;SDS011;62918;55.706;37.816;2023-02-26T02:07:19;9.43;;;6.47;;
74469;SDS011;62918;55.706;37.816;2023-02-26T02:07:50;8.50;;;5.50;;
74469;SDS011;62918;55.706;37.816;2023-02-26T02:08:21;8.50;;;5.53;;
74469;SDS011;62918;55.706;37.816;2023-02-26T02:08:52;9.00;;;5.97;;
74469;SDS011;62918;55.706;37.816;2023-02-26T02:09:22;8.60;;;6.40;;
74469;SDS011;62918;55.706;37.816;2023-02-26T02:09:53;9.02;;;6.88;;
74469;SDS011;62918;55.706;37.816;2023-02-26T02:10:24;8.10;;;6.15;;
74469;SDS011;62918;55.706;37.816;2023-02-26T02:10:55;10.05;;;7.50;;
74469;SDS011;62918;55.706;37.816;2023-02-26T02:11:25;8.45;;;6.05;;
74469;SDS011;62918;55.706;37.816;2023-02-26T02:13:00;9.82;;;6.43;;
74469;SDS011;62918;55.706;37.816;2023-02-26T02:14:45;9.00;;;6.63;;
74469;SDS011;62918;55.706;37.816;2023-02-26T02:16:49;8.55;;;6.13;;
74469;SDS011;62918;55.706;37.816;2023-02-26T02:17:37;8.77;;;5.75;;
74469;SDS011;62918;55.706;37.816;2023-02-26T02:18:21;9.90;;;6.60;;
74469;SDS011;62918;55.706;37.816;2023-02-26T02:20:25;9.55;;;6.20;;
74469;SDS011;62918;55.706;37.816;2023-02-26T02:26:59;11.50;;;7.22;;
74469;SDS011;62918;55.706;37.816;2023-02-26T02:27:57;11.40;;;7.38;;
74469;SDS011;62918;55.706;37.816;2023-02-26T02:28:37;13.60;;;8.05;;
74469;SDS011;62918;55.706;37.816;2023-02-26T02:31:34;12.73;;;7.90;;
74469;SDS011;62918;55.706;37.816;2023-02-26T02:32:21;10.82;;;6.85;;
74469;SDS011;62918;55.706;37.816;2023-02-26T02:32:59;11.45;;;7.57;;
74469;SDS011;62918;55.706;37.816;2023-02-26T02:33:49;12.10;;;7.75;;
74469;SDS011;62918;55.706;37.816;2023-02-26T02:34:44;11.15;;;7.50;;
74469;SDS011;62918;55.706;37.816;2023-02-26T02:35:22;12.70;;;8.40;;
74469;SDS011;62918;55.706;37.816;2023-02-26T02:35:59;12.35;;;8.20;;
74469;SDS011;62918;55.706;37.816;2023-02-26T02:36:37;11.88;;;7.72;;
74469;SDS011;62918;55.706;37.816;2023-02-26T02:38:43;14.20;;;8.50;;
74469;SDS011;62918;55.706;37.816;2023-02-26T02:40:12;12.48;;;8.27;;
74469;SDS011;62918;55.706;37.816;2023-02-26T02:40:56;12.00;;;8.43;;
74469;SDS011;62918;55.706;37.816;2023-02-26T02:41:37;13.18;;;8.73;;
74469;SDS011;62918;55.706;37.816;2023-02-26T02:43:33;11.75;;;8.30;;
74469;SDS011;62918;55.706;37.816;2023-02-26T02:44:09;11.98;;;8.45;;
74469;SDS011;62918;55.706;37.816;2023-02-26T02:44:45;12.27;;;8.63;;
74469;SDS011;62918;55.706;37.816;2023-02-26T02:45:59;12.70;;;8.82;;
74469;SDS011;62918;55.706;37.816;2023-02-26T02:46:40;12.05;;;7.47;;
74469;SDS011;62918;55.706;37.816;2023-02-26T02:47:15;11.55;;;7.63;;
74469;SDS011;62918;55.706;37.816;2023-02-26T02:47:49;10.52;;;6.57;;
74469;SDS011;62918;55.706;37.816;2023-02-26T02:48:26;10.55;;;7.35;;
74469;SDS011;62918;55.706;37.816;2023-02-26T02:49:02;9.32;;;6.82;;
74469;SDS011;62918;55.706;37.816;2023-02-26T02:49:58;10.45;;;6.82;;
74469;SDS011;62918;55.706;37.816;2023-02-26T02:51:02;11.38;;;6.97;;
74469;SDS011;62918;55.706;37.816;2023-02-26T02:51:36;9.00;;;6.00;;
74469;SDS011;62918;55.706;37.816;2023-02-26T02:53:29;9.82;;;6.55;;
74469;SDS011;62918;55.706;37.816;2023-02-26T02:54:07;9.85;;;6.32;;
74469;SDS011;62918;55.706;37.816;2023-02-26T02:54:50;12.00;;;7.15;;
74469;SDS011;62918;55.706;37.816;2023-02-26T02:55:29;8.43;;;5.95;;
74469;SDS011;62918;55.706;37.816;2023-02-26T02:56:12;10.48;;;6.50;;
74469;SDS011;62918;55.706;37.816;2023-02-26T02:57:00;9.90;;;6.20;;
74469;SDS011;62918;55.706;37.816;2023-02-26T02:57:42;8.10;;;5.57;;
74469;SDS011;62918;55.706;37.816;2023-02-26T02:58:21;8.68;;;5.65;;
74469;SDS011;62918;55.706;37.816;2023-02-26T02:58:58;8.13;;;5.22;;
74469;SDS011;62918;55.706;37.816;2023-02-26T02:59:45;8.45;;;5.82;;
74469;SDS011;62918;55.706;37.816;2023-02-26T03:00:29;9.05;;;5.15;;
74469;SDS011;62918;55.706;37.816;2023-02-26T03:01:03;8.75;;;6.28;;
74469;SDS011;62918;55.706;37.816;2023-02-26T03:01:37;9.48;;;6.32;;
74469;SDS011;62918;55.706;37.816;2023-02-26T03:03:07;7.45;;;4.93;;
74469;SDS011;62918;55.706;37.816;2023-02-26T03:04:12;7.55;;;5.07;;
74469;SDS011;62918;55.706;37.816;2023-02-26T03:04:45;8.73;;;5.60;;
74469;SDS011;62918;55.706;37.816;2023-02-26T03:05:17;8.00;;;4.82;;
74469;SDS011;62918;55.706;37.816;2023-02-26T03:05:48;8.20;;;5.75;;
74469;SDS011;62918;55.706;37.816;2023-02-26T03:06:18;6.78;;;5.05;;
74469;SDS011;62918;55.706;37.816;2023-02-26T03:06:49;7.18;;;5.05;;
74469;SDS011;62918;55.706;37.816;2023-02-26T03:07:20;7.63;;;5.53;;
74469;SDS011;62918;55.706;37.816;2023-02-26T03:07:52;7.72;;;5.75;;
74469;SDS011;62918;55.706;37.816;2023-02-26T03:08:27;6.88;;;4.63;;
74469;SDS011;62918;55.706;37.816;2023-02-26T03:09:03;8.23;;;5.03;;
74469;SDS011;62918;55.706;37.816;2023-02-26T03:09:36;7.57;;;5.18;;
74469;SDS011;62918;55.706;37.816;2023-02-26T03:10:07;7.50;;;5.00;;
74469;SDS011;62918;55.706;37.816;2023-02-26T03:10:38;7.88;;;4.80;;
74469;SDS011;62918;55.706;37.816;2023-02-26T03:11:09;8.77;;;5.75;;
74469;SDS011;62918;55.706;37.816;2023-02-26T03:11:40;8.20;;;5.22;;
74469;SDS011;62918;55.706;37.816;2023-02-26T03:12:11;7.57;;;5.07;;
74469;SDS011;62918;55.706;37.816;2023-02-26T03:12:41;7.47;;;5.80;;
74469;SDS011;62918;55.706;37.816;2023-02-26T03:13:16;7.85;;;5.65;;
74469;SDS011;62918;55.706;37.816;2023-02-26T03:13:49;7.95;;;5.68;;
74469;SDS011;62918;55.706;37.816;2023-02-26T03:14:22;7.50;;;5.57;;
74469;SDS011;62918;55.706;37.816;2023-02-26T03:14:53;7.68;;;5.40;;
74469;SDS011;62918;55.706;37.816;2023-02-26T03:15:36;8.13;;;5.55;;
74469;SDS011;62918;55.706;37.816;2023-02-26T03:20:06;6.63;;;4.20;;
74469;SDS011;62918;55.706;37.816;2023-02-26T03:20:57;6.55;;;4.18;;
74469;SDS011;62918;55.706;37.816;2023-02-26T03:23:29;5.93;;;3.83;;
74469;SDS011;62918;55.706;37.816;2023-02-26T03:25:23;6.22;;;3.97;;
74469;SDS011;62918;55.706;37.816;2023-02-26T03:26:14;5.85;;;3.85;;
74469;SDS011;62918;55.706;37.816;2023-02-26T03:26:57;6.50;;;4.50;;
74469;SDS011;62918;55.706;37.816;2023-02-26T03:27:52;5.70;;;4.18;;
74469;SDS011;62918;55.706;37.816;2023-02-26T03:30:33;4.78;;;3.67;;
74469;SDS011;62918;55.706;37.816;2023-02-26T03:31:57;5.55;;;2.95;;
74469;SDS011;62918;55.706;37.816;2023-02-26T03:34:55;5.93;;;3.58;;
74469;SDS011;62918;55.706;37.816;2023-02-26T03:35:34;5.25;;;3.78;;
74469;SDS011;62918;55.706;37.816;2023-02-26T03:37:34;7.50;;;4.13;;
74469;SDS011;62918;55.706;37.816;2023-02-26T03:38:11;5.95;;;3.55;;
74469;SDS011;62918;55.706;37.816;2023-02-26T03:38:53;6.00;;;4.22;;
74469;SDS011;62918;55.706;37.816;2023-02-26T03:39:42;5.05;;;4.15;;
74469;SDS011;62918;55.706;37.816;2023-02-26T03:40:19;5.95;;;3.90;;
74469;SDS011;62918;55.706;37.816;2023-02-26T03:40:57;5.57;;;3.95;;
74469;SDS011;62918;55.706;37.816;2023-02-26T03:41:35;5.10;;;3.65;;
74469;SDS011;62918;55.706;37.816;2023-02-26T03:42:49;6.85;;;4.30;;
74469;SDS011;62918;55.706;37.816;2023-02-26T03:43:52;10.60;;;7.55;;
74469;SDS011;62918;55.706;37.816;2023-02-26T03:44:32;5.78;;;3.75;;
74469;SDS011;62918;55.706;37.816;2023-02-26T03:45:10;8.10;;;4.55;;
74469;SDS011;62918;55.706;37.816;2023-02-26T03:45:44;6.35;;;4.30;;
74469;SDS011;62918;55.706;37.816;2023-02-26T03:46:18;6.78;;;4.03;;
74469;SDS011;62918;55.706;37.816;2023-02-26T03:46:58;5.60;;;3.83;;
74469;SDS011;62918;55.706;37.816;2023-02-26T03:47:32;5.50;;;3.60;;
74469;SDS011;62918;55.706;37.816;2023-02-26T03:48:06;5.50;;;4.13;;
74469;SDS011;62918;55.706;37.816;2023-02-26T03:48:40;7.80;;;4.72;;
74469;SDS011;62918;55.706;37.816;2023-02-26T03:49:14;6.05;;;4.43;;
74469;SDS011;62918;55.706;37.816;2023-02-26T03:49:58;5.53;;;4.63;;
74469;SDS011;62918;55.706;37.816;2023-02-26T03:50:43;6.32;;;4.20;;
74469;SDS011;62918;55.706;37.816;2023-02-26T03:51:18;5.60;;;4.43;;
74469;SDS011;62918;55.706;37.816;2023-02-26T03:51:50;7.15;;;4.93;;
74469;SDS011;62918;55.706;37.816;2023-02-26T03:52:23;6.40;;;4.88;;
74469;SDS011;62918;55.706;37.816;2023-02-26T03:52:56;6.13;;;4.20;;
74469;SDS011;62918;55.706;37.816;2023-02-26T03:53:30;6.78;;;4.57;;
74469;SDS011;62918;55.706;37.816;2023-02-26T03:54:58;7.20;;;4.50;;
74469;SDS011;62918;55.706;37.816;2023-02-26T03:56:27;6.82;;;4.22;;
74469;SDS011;62918;55.706;37.816;2023-02-26T03:57:02;6.35;;;4.60;;
74469;SDS011;62918;55.706;37.816;2023-02-26T03:57:33;7.28;;;4.95;;
74469;SDS011;62918;55.706;37.816;2023-02-26T03:58:04;5.00;;;3.97;;
74469;SDS011;62918;55.706;37.816;2023-02-26T03:58:34;6.22;;;4.32;;
74469;SDS011;62918;55.706;37.816;2023-02-26T03:59:06;7.63;;;4.88;;
74469;SDS011;62918;55.706;37.816;2023-02-26T03:59:37;6.25;;;4.60;;
74469;SDS011;62918;55.706;37.816;2023-02-26T04:00:09;7.05;;;5.10;;
74469;SDS011;62918;55.706;37.816;2023-02-26T04:00:42;6.03;;;4.85;;
74469;SDS011;62918;55.706;37.816;2023-02-26T04:01:18;5.95;;;4.20;;
74469;SDS011;62918;55.706;37.816;2023-02-26T04:01:59;6.80;;;4.50;;
74469;SDS011;62918;55.706;37.816;2023-02-26T04:02:37;6.80;;;4.80;;
74469;SDS011;62918;55.706;37.816;2023-02-26T04:04:14;7.60;;;4.55;;
74469;SDS011;62918;55.706;37.816;2023-02-26T04:04:56;5.78;;;4.20;;
74469;SDS011;62918;55.706;37.816;2023-02-26T04:05:42;6.88;;;4.63;;
74469;SDS011;62918;55.706;37.816;2023-02-26T04:06:16;7.68;;;4.15;;
74469;SDS011;62918;55.706;37.816;2023-02-26T04:06:49;5.63;;;4.18;;
74469;SDS011;62918;55.706;37.816;2023-02-26T04:07:22;5.38;;;3.78;;
74469;SDS011;62918;55.706;37.816;2023-02-26T04:07:53;7.88;;;5.55;;
74469;SDS011;62918;55.706;37.816;2023-02-26T04:08:26;10.23;;;7.15;;
74469;SDS011;62918;55.706;37.816;2023-02-26T04:08:56;6.45;;;4.45;;
74469;SDS011;62918;55.706;37.816;2023-02-26T04:09:27;6.00;;;4.47;;
74469;SDS011;62918;55.706;37.816;2023-02-26T04:09:58;7.05;;;4.80;;
74469;SDS011;62918;55.706;37.816;2023-02-26T04:10:33;7.75;;;6.20;;
74469;SDS011;62918;55.706;37.816;2023-02-26T04:11:19;11.63;;;7.75;;
74469;SDS011;62918;55.706;37.816;2023-02-26T04:11:52;6.38;;;4.60;;
74469;SDS011;62918;55.706;37.816;2023-02-26T04:12:57;5.93;;;4.13;;
74469;SDS011;62918;55.706;37.816;2023-02-26T04:13:31;6.20;;;4.00;;
74469;SDS011;62918;55.706;37.816;2023-02-26T04:14:02;6.03;;;4.50;;
74469;SDS011;62918;55.706;37.816;2023-02-26T04:14:32;6.50;;;4.60;;
74469;SDS011;62918;55.706;37.816;2023-02-26T04:15:03;8.40;;;5.70;;
74469;SDS011;62918;55.706;37.816;2023-02-26T04:15:34;6.75;;;4.22;;
74469;SDS011;62918;55.706;37.816;2023-02-26T04:16:05;6.28;;;4.85;;
74469;SDS011;62918;55.706;37.816;2023-02-26T04:16:36;6.25;;;5.10;;
74469;SDS011;62918;55.706;37.816;2023-02-26T04:17:06;11.40;;;9.82;;
74469;SDS011;62918;55.706;37.816;2023-02-26T04:17:37;8.73;;;7.10;;
74469;SDS011;62918;55.706;37.816;2023-02-26T04:18:08;7.97;;;6.22;;
74469;SDS011;62918;55.706;37.816;2023-02-26T04:18:38;7.43;;;6.00;;
74469;SDS011;62918;55.706;37.816;2023-02-26T04:19:10;7.50;;;5.50;;
74469;SDS011;62918;55.706;37.816;2023-02-26T04:19:41;8.93;;;6.13;;
74469;SDS011;62918;55.706;37.816;2023-02-26T04:20:11;8.88;;;5.90;;
74469;SDS011;62918;55.706;37.816;2023-02-26T04:20:42;9.70;;;7.25;;
74469;SDS011;62918;55.706;37.816;2023-02-26T04:21:13;8.13;;;6.28;;
74469;SDS011;62918;55.706;37.816;2023-02-26T04:21:46;8.43;;;6.70;;
74469;SDS011;62918;55.706;37.816;2023-02-26T04:22:16;9.65;;;6.35;;
74469;SDS011;62918;55.706;37.816;2023-02-26T04:22:47;7.57;;;6.05;;
74469;SDS011;62918;55.706;37.816;2023-02-26T04:23:18;7.63;;;6.25;;